createdAt,value
2024-04-11T00:01:20.261Z,11.20
2024-04-11T00:04:06.210Z,11.20
2024-04-11T00:06:52.579Z,11.20
2024-04-11T00:09:38.137Z,11.20
2024-04-11T00:12:23.755Z,11.17
2024-04-11T00:15:09.494Z,11.13
2024-04-11T00:17:55.453Z,11.09
2024-04-11T00:20:41.519Z,11.08
2024-04-11T00:23:27.562Z,11.08
2024-04-11T00:26:13.771Z,11.08
2024-04-11T00:28:59.276Z,11.03
2024-04-11T00:31:46.384Z,10.98
2024-04-11T00:34:34.204Z,10.93
2024-04-11T00:37:23.088Z,10.90
2024-04-11T00:40:09.661Z,10.88
2024-04-11T00:42:56.158Z,10.85
2024-04-11T00:45:47.713Z,10.83
2024-04-11T00:48:33.639Z,10.83
2024-04-11T00:51:19.780Z,10.84
2024-04-11T00:54:06.374Z,10.85
2024-04-11T00:56:52.437Z,10.86
2024-04-11T00:59:41.416Z,10.83
2024-04-11T01:02:27.309Z,10.82
2024-04-11T01:05:12.837Z,10.80
2024-04-11T01:07:59.053Z,10.74
2024-04-11T01:10:44.773Z,10.72
2024-04-11T01:13:32.494Z,10.70
2024-04-11T01:16:19.099Z,10.69
2024-04-11T01:19:06.233Z,10.69
2024-04-11T01:21:52.421Z,10.66
2024-04-11T01:24:40.586Z,10.64
2024-04-11T01:27:26.507Z,10.61
2024-04-11T01:30:12.552Z,10.56
2024-04-11T01:33:01.247Z,10.51
2024-04-11T01:35:48.001Z,10.51
2024-04-11T01:38:34.533Z,10.49
2024-04-11T01:41:20.443Z,10.46
2024-04-11T01:44:06.377Z,10.45
2024-04-11T01:46:55.118Z,10.46
2024-04-11T01:49:44.576Z,10.45
2024-04-11T01:52:30.490Z,10.43
2024-04-11T01:55:16.119Z,10.43
2024-04-11T01:58:03.454Z,10.42
2024-04-11T02:00:49.488Z,10.42
2024-04-11T02:03:39.575Z,10.41
2024-04-11T02:06:25.421Z,10.40
2024-04-11T02:09:11.548Z,10.36
2024-04-11T02:11:58.368Z,10.31
2024-04-11T02:14:46.906Z,10.29
2024-04-11T02:17:33.665Z,10.24
2024-04-11T02:20:21.496Z,10.19
2024-04-11T02:23:07.282Z,10.17
2024-04-11T02:25:52.485Z,10.17
2024-04-11T02:28:38.576Z,10.19
2024-04-11T02:31:23.828Z,10.21
2024-04-11T02:34:12.380Z,10.26
2024-04-11T02:36:58.831Z,10.31
2024-04-11T02:39:44.880Z,10.35
2024-04-11T02:42:30.726Z,10.34
2024-04-11T02:45:17.223Z,10.32
2024-04-11T02:48:04.455Z,10.38
2024-04-11T02:50:50.630Z,10.42
2024-04-11T02:53:39.392Z,10.45
2024-04-11T02:56:27.287Z,10.50
2024-04-11T02:59:13.099Z,10.55
2024-04-11T03:01:59.810Z,10.58
2024-04-11T03:04:47.936Z,10.63
2024-04-11T03:07:33.421Z,10.71
2024-04-11T03:10:18.969Z,10.75
2024-04-11T03:13:05.162Z,10.76
2024-04-11T03:15:58.282Z,10.74
2024-04-11T03:18:45.208Z,10.70
2024-04-11T03:21:30.757Z,10.68
2024-04-11T03:24:16.399Z,10.67
2024-04-11T03:27:03.576Z,10.68
2024-04-11T03:29:49.978Z,10.65
2024-04-11T03:32:35.584Z,10.64
2024-04-11T03:35:22.469Z,10.64
2024-04-11T03:38:08.994Z,10.65
2024-04-11T03:40:59.031Z,10.68
2024-04-11T03:43:44.795Z,10.68
2024-04-11T03:46:30.976Z,10.69
2024-04-11T03:49:16.924Z,10.72
2024-04-11T03:52:06.027Z,10.76
2024-04-11T03:54:52.130Z,10.81
2024-04-11T03:57:39.161Z,10.88
2024-04-11T04:00:25.366Z,10.94
2024-04-11T04:03:12.267Z,10.98
2024-04-11T04:05:57.768Z,11.02
2024-04-11T04:08:47.155Z,11.09
2024-04-11T04:11:32.842Z,11.22
2024-04-11T04:14:18.736Z,11.33
2024-04-11T04:17:04.514Z,11.47
2024-04-11T04:19:50.787Z,11.60
2024-04-11T04:22:36.847Z,11.74
2024-04-11T04:25:23.109Z,11.87
2024-04-11T04:28:08.590Z,12.02
2024-04-11T04:30:58.420Z,12.14
2024-04-11T04:33:50.058Z,12.24
2024-04-11T04:36:43.386Z,12.36
2024-04-11T04:39:38.439Z,12.44
2024-04-11T04:42:24.238Z,12.55
2024-04-11T04:45:14.084Z,12.67
2024-04-11T04:47:59.848Z,12.78
2024-04-11T04:50:45.745Z,12.91
2024-04-11T04:53:32.904Z,13.06
2024-04-11T04:56:20.094Z,13.21
2024-04-11T04:59:06.516Z,13.38
2024-04-11T05:01:54.008Z,13.58
2024-04-11T05:04:39.840Z,13.78
2024-04-11T05:07:25.806Z,13.98
2024-04-11T05:10:26.268Z,14.19
2024-04-11T05:13:11.527Z,14.39
2024-04-11T05:15:57.827Z,14.56
2024-04-11T05:18:43.554Z,14.74
2024-04-11T05:21:29.742Z,14.92
2024-04-11T05:24:16.576Z,15.10
2024-04-11T05:27:02.407Z,15.30
2024-04-11T05:29:47.936Z,15.50
2024-04-11T05:32:47.736Z,15.73
2024-04-11T05:35:37.602Z,15.99
2024-04-11T05:38:23.099Z,16.21
2024-04-11T05:41:14.877Z,16.42
2024-04-11T05:44:02.273Z,16.65
2024-04-11T05:46:49.589Z,16.85
2024-04-11T05:49:44.028Z,17.05
2024-04-11T05:52:35.409Z,17.24
2024-04-11T05:58:56.269Z,17.62
2024-04-11T06:01:57.549Z,17.82
2024-04-11T06:04:44.009Z,18.00
2024-04-11T06:07:30.045Z,18.18
2024-04-11T06:10:20.777Z,18.31
2024-04-11T06:13:07.133Z,18.47
2024-04-11T06:15:52.325Z,18.60
2024-04-11T06:18:39.406Z,18.74
2024-04-11T06:21:32.667Z,18.86
2024-04-11T06:24:18.926Z,18.97
2024-04-11T06:27:06.012Z,19.09
2024-04-11T06:30:00.137Z,19.19
2024-04-11T06:32:50.188Z,19.29
2024-04-11T06:35:37.462Z,19.39
2024-04-11T06:38:31.691Z,19.49
2024-04-11T06:41:23.099Z,19.60
2024-04-11T06:44:12.878Z,19.72
2024-04-11T06:46:59.014Z,19.87
2024-04-11T06:49:51.985Z,19.96
2024-04-11T06:52:38.420Z,20.08
2024-04-11T06:55:24.904Z,20.17
2024-04-11T06:58:10.757Z,20.26
2024-04-11T07:00:59.829Z,20.35
2024-04-11T07:03:50.270Z,20.45
2024-04-11T07:06:44.018Z,20.53
2024-04-11T07:09:43.826Z,20.62
2024-04-11T07:12:30.741Z,20.73
2024-04-11T07:15:29.664Z,20.82
2024-04-11T07:18:18.156Z,20.92
2024-04-11T07:21:20.634Z,21.02
2024-04-11T07:24:11.434Z,21.13
2024-04-11T07:27:01.219Z,21.22
2024-04-11T07:29:48.314Z,21.30
2024-04-11T07:32:35.353Z,21.38
2024-04-11T07:35:27.401Z,21.47
2024-04-11T07:38:14.676Z,21.56
2024-04-11T07:41:17.283Z,21.67
2024-04-11T07:44:06.485Z,21.76
2024-04-11T07:47:01.377Z,21.86
2024-04-11T07:49:58.084Z,21.97
2024-04-11T07:52:45.227Z,22.06
2024-04-11T07:55:31.174Z,22.15
2024-04-11T07:58:22.380Z,22.24
2024-04-11T08:01:08.713Z,22.34
2024-04-11T08:03:55.317Z,22.46
2024-04-11T08:06:41.216Z,22.57
2024-04-11T08:09:37.920Z,22.65
2024-04-11T08:12:27.994Z,22.73
2024-04-11T08:15:16.280Z,22.81
2024-04-11T08:18:04.207Z,22.91
2024-04-11T08:20:50.102Z,23.02
2024-04-11T08:23:36.884Z,23.14
2024-04-11T08:26:24.519Z,23.24
2024-04-11T08:29:11.048Z,23.33
2024-04-11T08:31:56.840Z,23.41
2024-04-11T08:34:44.619Z,23.50
2024-04-11T08:37:38.135Z,23.58
2024-04-11T08:40:25.003Z,23.68
2024-04-11T08:43:15.966Z,23.79
2024-04-11T08:46:10.385Z,23.92
2024-04-11T08:49:05.414Z,24.06
2024-04-11T08:52:36.464Z,24.18
2024-04-11T08:55:27.098Z,24.26
2024-04-11T08:58:27.130Z,24.35
2024-04-11T09:01:26.849Z,24.48
2024-04-11T09:04:12.567Z,24.58
2024-04-11T09:07:01.075Z,24.70
2024-04-11T09:09:46.888Z,24.77
2024-04-11T09:12:36.929Z,24.80
2024-04-11T09:15:25.982Z,24.92
2024-04-11T09:18:28.229Z,24.97
2024-04-11T09:21:28.711Z,25.05
2024-04-11T09:24:26.287Z,25.03
2024-04-11T09:27:17.591Z,25.12
2024-04-11T09:30:04.293Z,25.23
2024-04-11T09:36:29.844Z,25.47
2024-04-11T09:39:41.068Z,25.46
2024-04-11T09:42:30.808Z,25.50
2024-04-11T09:45:19.449Z,25.57
2024-04-11T09:48:19.174Z,25.64
2024-04-11T09:51:10.612Z,25.70
2024-04-11T09:54:04.612Z,25.76
2024-04-11T09:56:50.795Z,25.80
2024-04-11T09:59:37.091Z,25.85
2024-04-11T10:02:25.298Z,25.95
2024-04-11T10:05:16.630Z,26.05
2024-04-11T10:08:02.172Z,26.20
2024-04-11T10:10:53.409Z,26.31
2024-04-11T10:13:42.813Z,26.39
2024-04-11T10:16:32.711Z,26.44
2024-04-11T10:19:41.845Z,26.50
2024-04-11T10:22:33.084Z,26.63
2024-04-11T10:25:22.201Z,26.76
2024-04-11T10:28:18.886Z,26.91
2024-04-11T10:31:12.572Z,27.05
2024-04-11T10:38:28.294Z,27.32
2024-04-11T10:41:17.906Z,27.37
2024-04-11T10:44:03.283Z,27.45
2024-04-11T10:46:49.777Z,27.46
2024-04-11T10:49:45.960Z,27.47
2024-04-11T10:52:33.162Z,27.44
2024-04-11T10:55:23.370Z,27.45
2024-04-11T10:58:13.764Z,27.56
2024-04-11T11:01:02.907Z,27.62
2024-04-11T11:04:08.776Z,27.79
2024-04-11T11:07:11.197Z,27.96
2024-04-11T11:09:58.180Z,28.10
2024-04-11T11:12:43.715Z,28.18
2024-04-11T11:15:32.172Z,28.19
2024-04-11T11:18:21.137Z,28.21
2024-04-11T11:21:08.584Z,28.20
2024-04-11T11:24:06.763Z,28.26
2024-04-11T11:27:01.824Z,28.40
2024-04-11T11:29:48.979Z,28.52
2024-04-11T11:32:38.122Z,28.55
2024-04-11T11:35:25.150Z,28.37
2024-04-11T11:38:13.042Z,28.16
2024-04-11T11:41:01.146Z,28.00
2024-04-11T11:47:08.806Z,27.71
2024-04-11T11:49:57.163Z,27.66
2024-04-11T11:52:54.948Z,27.67
2024-04-11T11:55:44.274Z,27.66
2024-04-11T11:58:35.598Z,27.70
2024-04-11T12:01:36.277Z,27.84
2024-04-11T12:04:23.043Z,27.93
2024-04-11T12:07:08.461Z,28.02
2024-04-11T12:10:13.428Z,28.25
2024-04-11T12:13:11.135Z,28.28
2024-04-11T12:15:57.265Z,28.18
2024-04-11T12:18:44.305Z,28.06
2024-04-11T12:21:34.833Z,27.92
2024-04-11T12:24:24.796Z,27.77
2024-04-11T12:27:14.183Z,27.70
2024-04-11T12:30:02.305Z,27.66
2024-04-11T12:32:48.625Z,27.70
2024-04-11T12:35:46.409Z,27.97
2024-04-11T12:38:32.951Z,28.24
2024-04-11T12:41:18.677Z,28.45
2024-04-11T12:44:04.766Z,28.67
2024-04-11T12:46:53.507Z,28.83
2024-04-11T12:49:39.862Z,29.08
2024-04-11T12:52:25.922Z,29.09
2024-04-11T12:55:12.402Z,28.77
2024-04-11T12:58:06.724Z,29.00
2024-04-11T13:01:06.729Z,28.85
2024-04-11T13:03:54.608Z,29.10
2024-04-11T13:06:52.694Z,29.28
2024-04-11T13:09:54.486Z,29.42
2024-04-11T13:12:44.515Z,29.71
2024-04-11T13:15:50.491Z,30.09
2024-04-11T13:18:40.743Z,30.17
2024-04-11T13:21:39.657Z,30.05
2024-04-11T13:24:25.252Z,30.22
2024-04-11T13:27:30.788Z,30.52
2024-04-11T13:30:17.548Z,30.77
2024-04-11T13:33:04.023Z,30.84
2024-04-11T13:35:49.652Z,30.49
2024-04-11T13:38:42.755Z,30.36
2024-04-11T13:41:50.067Z,30.49
2024-04-11T13:44:36.191Z,30.33
2024-04-11T13:47:26.481Z,30.42
2024-04-11T13:50:30.771Z,30.63
2024-04-11T13:53:21.523Z,30.96
2024-04-11T13:56:14.336Z,31.25
2024-04-11T13:59:08.137Z,31.78
2024-04-11T14:02:00.143Z,32.03
2024-04-11T14:04:47.619Z,31.97
2024-04-11T14:07:33.154Z,31.65
2024-04-11T14:10:21.081Z,31.75
2024-04-11T14:13:08.374Z,32.15
2024-04-11T14:15:54.361Z,32.32
2024-04-11T14:18:48.409Z,32.32
2024-04-11T14:21:53.819Z,32.53
2024-04-11T14:24:59.329Z,32.68
2024-04-11T14:27:48.396Z,32.32
2024-04-11T14:30:34.339Z,32.51
2024-04-11T14:33:39.900Z,32.69
2024-04-11T14:36:28.711Z,32.72
2024-04-11T14:39:17.985Z,32.70
2024-04-11T14:42:08.686Z,32.48
2024-04-11T14:44:55.738Z,32.42
2024-04-11T14:47:41.464Z,32.60
2024-04-11T14:50:27.425Z,32.41
2024-04-11T14:53:17.113Z,32.35
2024-04-11T14:56:18.648Z,32.19
2024-04-11T14:59:05.739Z,32.27
2024-04-11T15:01:53.967Z,32.12
2024-04-11T15:04:39.765Z,32.17
2024-04-11T15:07:29.848Z,32.25
2024-04-11T15:10:18.989Z,31.78
2024-04-11T15:13:06.126Z,31.71
2024-04-11T15:16:10.697Z,31.52
2024-04-11T15:18:57.771Z,31.20
2024-04-11T15:21:52.840Z,31.16
2024-04-11T15:24:47.383Z,30.58
2024-04-11T15:27:42.747Z,30.59
2024-04-11T15:30:49.403Z,30.52
2024-04-11T15:33:59.542Z,30.00
2024-04-11T15:36:54.607Z,29.57
2024-04-11T15:39:40.198Z,29.53
2024-04-11T15:42:25.718Z,29.56
2024-04-11T15:45:13.124Z,29.37
2024-04-11T15:48:00.289Z,28.77
2024-04-11T15:50:51.278Z,28.35
2024-04-11T15:57:48.242Z,28.01
2024-04-11T16:00:41.713Z,27.61
2024-04-11T16:03:37.527Z,27.36
2024-04-11T16:06:32.035Z,27.08
2024-04-11T16:09:19.164Z,26.87
2024-04-11T16:12:22.372Z,26.31
2024-04-11T16:15:10.512Z,25.75
2024-04-11T16:17:57.319Z,25.48
2024-04-11T16:20:49.628Z,25.11
2024-04-11T16:23:36.647Z,24.78
2024-04-11T16:26:27.977Z,24.41
2024-04-11T16:29:20.024Z,24.04
2024-04-11T16:32:06.412Z,23.79
2024-04-11T16:34:55.283Z,23.44
2024-04-11T16:38:17.020Z,23.17
2024-04-11T16:41:06.983Z,22.99
2024-04-11T16:44:14.572Z,22.72
2024-04-11T16:47:11.508Z,22.50
2024-04-11T16:50:06.283Z,22.24
2024-04-11T16:57:17.859Z,21.71
2024-04-11T17:00:16.842Z,21.51
2024-04-11T17:03:10.476Z,21.36
2024-04-11T17:05:58.647Z,21.22
2024-04-11T17:08:46.202Z,21.03
2024-04-11T17:11:37.981Z,20.91
2024-04-11T17:14:28.914Z,20.83
2024-04-11T17:17:17.157Z,20.75
2024-04-11T17:20:24.551Z,20.68
2024-04-11T17:23:10.435Z,20.61
2024-04-11T17:25:58.977Z,20.46
2024-04-11T17:28:50.210Z,20.24
2024-04-11T17:31:49.356Z,20.03
2024-04-11T17:34:45.844Z,19.80
2024-04-11T17:37:41.092Z,19.65
2024-04-11T17:40:36.655Z,19.56
2024-04-11T17:43:28.234Z,19.42
2024-04-11T17:46:13.698Z,19.19
2024-04-11T17:49:16.686Z,19.02
2024-04-11T17:52:22.430Z,18.92
2024-04-11T17:55:29.679Z,18.86
2024-04-11T17:58:22.039Z,18.75
2024-04-11T18:01:09.847Z,18.67
2024-04-11T18:03:59.216Z,18.59
2024-04-11T18:06:44.879Z,18.52
2024-04-11T18:09:32.191Z,18.43
2024-04-11T18:12:17.512Z,18.32
2024-04-11T18:15:04.554Z,18.16
2024-04-11T18:17:55.014Z,17.98
2024-04-11T18:20:40.963Z,17.82
2024-04-11T18:23:26.705Z,17.66
2024-04-11T18:26:15.585Z,17.59
2024-04-11T18:29:07.666Z,17.45
2024-04-11T18:31:54.174Z,17.34
2024-04-11T18:34:51.768Z,17.28
2024-04-11T18:37:39.502Z,17.27
2024-04-11T18:40:25.019Z,17.28
2024-04-11T18:43:22.469Z,17.25
2024-04-11T18:46:19.973Z,17.13
2024-04-11T18:49:30.167Z,17.08
2024-04-11T18:57:08.759Z,17.05
2024-04-11T19:03:21.782Z,17.00
2024-04-11T19:06:07.306Z,17.01
2024-04-11T19:08:54.550Z,17.01
2024-04-11T19:11:41.679Z,16.92
2024-04-11T19:14:29.752Z,16.84
2024-04-11T19:17:19.021Z,16.75
2024-04-11T19:20:20.071Z,16.70
2024-04-11T19:23:06.570Z,16.68
2024-04-11T19:25:59.010Z,16.67
2024-04-11T19:28:44.899Z,16.66
2024-04-11T19:31:33.162Z,16.64
2024-04-11T19:34:25.248Z,16.64
2024-04-11T19:37:12.374Z,16.65
2024-04-11T19:40:43.895Z,16.67
2024-04-11T19:47:40.883Z,16.74
2024-04-11T19:54:54.699Z,16.68
2024-04-11T19:58:34.279Z,16.55
2024-04-11T20:13:12.214Z,16.37
2024-04-11T20:16:04.580Z,16.31
2024-04-11T20:18:53.868Z,16.23
2024-04-11T20:21:41.481Z,16.19
2024-04-11T20:24:27.642Z,16.16
2024-04-11T20:27:15.269Z,16.10
2024-04-11T20:30:14.993Z,16.02
2024-04-11T20:33:01.081Z,15.98
2024-04-11T20:35:47.651Z,15.95
2024-04-11T20:38:37.298Z,15.94
2024-04-11T20:41:25.469Z,15.94
2024-04-11T20:44:11.103Z,15.95
2024-04-11T20:47:08.608Z,15.93
2024-04-11T20:50:13.230Z,15.89
2024-04-11T20:53:17.155Z,15.88
2024-04-11T20:56:21.360Z,15.86
2024-04-11T20:59:25.767Z,15.81
2024-04-11T21:02:29.732Z,15.81
2024-04-11T21:05:33.792Z,15.82
2024-04-11T21:08:38.007Z,15.85
2024-04-11T21:11:42.638Z,15.85
2024-04-11T21:14:46.964Z,15.84
2024-04-11T21:17:51.317Z,15.81
2024-04-11T21:20:55.285Z,15.81
2024-04-11T21:24:05.039Z,15.84
2024-04-11T21:27:09.019Z,15.90
2024-04-11T21:30:12.930Z,15.97
2024-04-11T21:33:16.947Z,16.11
